sensor_id;sensor_type;location;lat;lon;timestamp;temperature;humidity
10868;DHT22;62667;48.698;8.762;2022-11-10T00:00:28;10.50;99.90
10868;DHT22;62667;48.698;8.762;2022-11-10T00:02:59;10.50;99.90
10868;DHT22;62667;48.698;8.762;2022-11-10T00:05:27;10.50;99.90
10868;DHT22;62667;48.698;8.762;2022-11-10T00:07:53;10.40;99.90
10868;DHT22;62667;48.698;8.762;2022-11-10T00:10:20;10.40;99.90
10868;DHT22;62667;48.698;8.762;2022-11-10T00:12:46;10.40;99.90
10868;DHT22;62667;48.698;8.762;2022-11-10T00:15:13;10.40;99.90
10868;DHT22;62667;48.698;8.762;2022-11-10T00:18:00;10.40;99.90
10868;DHT22;62667;48.698;8.762;2022-11-10T00:20:30;10.40;99.90
10868;DHT22;62667;48.698;8.762;2022-11-10T00:22:57;10.40;99.90
10868;DHT22;62667;48.698;8.762;2022-11-10T00:25:23;10.30;99.90
10868;DHT22;62667;48.698;8.762;2022-11-10T00:27:50;10.30;99.90
10868;DHT22;62667;48.698;8.762;2022-11-10T00:30:17;10.30;99.90
10868;DHT22;62667;48.698;8.762;2022-11-10T00:32:45;10.30;99.90
10868;DHT22;62667;48.698;8.762;2022-11-10T00:35:12;10.30;99.90
10868;DHT22;62667;48.698;8.762;2022-11-10T00:37:41;10.30;99.90
10868;DHT22;62667;48.698;8.762;2022-11-10T00:40:09;10.20;99.90
10868;DHT22;62667;48.698;8.762;2022-11-10T00:42:36;10.20;99.90
10868;DHT22;62667;48.698;8.762;2022-11-10T00:45:04;10.10;99.90
10868;DHT22;62667;48.698;8.762;2022-11-10T00:47:33;10.10;99.90
10868;DHT22;62667;48.698;8.762;2022-11-10T00:49:59;10.00;99.90
10868;DHT22;62667;48.698;8.762;2022-11-10T00:52:27;10.00;99.90
10868;DHT22;62667;48.698;8.762;2022-11-10T00:54:55;10.00;99.90
10868;DHT22;62667;48.698;8.762;2022-11-10T00:57:22;9.90;99.90
10868;DHT22;62667;48.698;8.762;2022-11-10T00:59:48;9.90;99.90
10868;DHT22;62667;48.698;8.762;2022-11-10T01:02:15;9.90;99.90
10868;DHT22;62667;48.698;8.762;2022-11-10T01:04:41;9.80;99.90
10868;DHT22;62667;48.698;8.762;2022-11-10T01:07:08;9.80;99.90
10868;DHT22;62667;48.698;8.762;2022-11-10T01:09:35;9.80;99.90
10868;DHT22;62667;48.698;8.762;2022-11-10T01:12:01;9.80;99.90
10868;DHT22;62667;48.698;8.762;2022-11-10T01:14:29;9.70;99.90
10868;DHT22;62667;48.698;8.762;2022-11-10T01:16:55;9.70;99.90
10868;DHT22;62667;48.698;8.762;2022-11-10T01:19:22;9.60;99.90
10868;DHT22;62667;48.698;8.762;2022-11-10T01:21:49;9.50;99.90
10868;DHT22;62667;48.698;8.762;2022-11-10T01:24:18;9.40;99.90
10868;DHT22;62667;48.698;8.762;2022-11-10T01:26:46;9.40;99.90
10868;DHT22;62667;48.698;8.762;2022-11-10T01:29:14;9.40;99.90
10868;DHT22;62667;48.698;8.762;2022-11-10T01:31:40;9.30;99.90
10868;DHT22;62667;48.698;8.762;2022-11-10T01:34:09;9.30;99.90
10868;DHT22;62667;48.698;8.762;2022-11-10T01:39:05;9.30;99.90
10868;DHT22;62667;48.698;8.762;2022-11-10T01:41:34;9.30;99.90
10868;DHT22;62667;48.698;8.762;2022-11-10T01:44:19;9.30;99.90
10868;DHT22;62667;48.698;8.762;2022-11-10T01:46:47;9.30;99.90
10868;DHT22;62667;48.698;8.762;2022-11-10T01:49:20;9.30;99.90
10868;DHT22;62667;48.698;8.762;2022-11-10T01:51:52;9.30;99.90
10868;DHT22;62667;48.698;8.762;2022-11-10T01:54:25;9.20;99.90
10868;DHT22;62667;48.698;8.762;2022-11-10T01:56:56;9.20;99.90
10868;DHT22;62667;48.698;8.762;2022-11-10T01:59:28;9.10;99.90
10868;DHT22;62667;48.698;8.762;2022-11-10T02:02:02;9.20;99.90
10868;DHT22;62667;48.698;8.762;2022-11-10T02:04:36;9.20;99.90
10868;DHT22;62667;48.698;8.762;2022-11-10T02:07:05;9.20;99.90
10868;DHT22;62667;48.698;8.762;2022-11-10T02:09:31;9.20;99.90
10868;DHT22;62667;48.698;8.762;2022-11-10T02:11:58;9.10;99.90
10868;DHT22;62667;48.698;8.762;2022-11-10T02:14:25;9.10;99.90
10868;DHT22;62667;48.698;8.762;2022-11-10T02:16:52;9.10;99.90
10868;DHT22;62667;48.698;8.762;2022-11-10T02:19:20;9.10;99.90
10868;DHT22;62667;48.698;8.762;2022-11-10T02:21:49;9.10;99.90
10868;DHT22;62667;48.698;8.762;2022-11-10T02:24:16;9.10;99.90
10868;DHT22;62667;48.698;8.762;2022-11-10T02:26:46;9.10;99.90
10868;DHT22;62667;48.698;8.762;2022-11-10T02:29:16;9.00;99.90
10868;DHT22;62667;48.698;8.762;2022-11-10T02:31:45;8.90;99.90
10868;DHT22;62667;48.698;8.762;2022-11-10T02:34:11;9.00;99.90
10868;DHT22;62667;48.698;8.762;2022-11-10T02:36:40;8.90;99.90
10868;DHT22;62667;48.698;8.762;2022-11-10T02:39:07;8.90;99.90
10868;DHT22;62667;48.698;8.762;2022-11-10T02:41:34;8.80;99.90
10868;DHT22;62667;48.698;8.762;2022-11-10T02:44:01;8.90;99.90
10868;DHT22;62667;48.698;8.762;2022-11-10T02:46:31;8.70;99.90
10868;DHT22;62667;48.698;8.762;2022-11-10T02:49:00;8.60;99.90
10868;DHT22;62667;48.698;8.762;2022-11-10T02:51:26;8.60;99.90
10868;DHT22;62667;48.698;8.762;2022-11-10T02:53:53;8.50;99.90
10868;DHT22;62667;48.698;8.762;2022-11-10T02:56:20;8.50;99.90
10868;DHT22;62667;48.698;8.762;2022-11-10T02:58:46;8.50;99.90
10868;DHT22;62667;48.698;8.762;2022-11-10T03:01:13;8.40;99.90
10868;DHT22;62667;48.698;8.762;2022-11-10T03:03:39;8.40;99.90
10868;DHT22;62667;48.698;8.762;2022-11-10T03:06:05;8.30;99.90
10868;DHT22;62667;48.698;8.762;2022-11-10T03:08:32;8.20;99.90
10868;DHT22;62667;48.698;8.762;2022-11-10T03:10:58;8.20;99.90
10868;DHT22;62667;48.698;8.762;2022-11-10T03:13:25;8.20;99.90
10868;DHT22;62667;48.698;8.762;2022-11-10T03:15:52;8.30;99.90
10868;DHT22;62667;48.698;8.762;2022-11-10T03:18:21;8.40;99.90
10868;DHT22;62667;48.698;8.762;2022-11-10T03:20:48;8.40;99.90
10868;DHT22;62667;48.698;8.762;2022-11-10T03:23:15;8.40;99.90
10868;DHT22;62667;48.698;8.762;2022-11-10T03:25:43;8.30;99.90
10868;DHT22;62667;48.698;8.762;2022-11-10T03:28:12;8.40;99.90
10868;DHT22;62667;48.698;8.762;2022-11-10T03:30:40;8.40;99.90
10868;DHT22;62667;48.698;8.762;2022-11-10T03:33:09;8.40;99.90
10868;DHT22;62667;48.698;8.762;2022-11-10T03:35:36;8.10;99.90
10868;DHT22;62667;48.698;8.762;2022-11-10T03:38:04;8.10;99.90
10868;DHT22;62667;48.698;8.762;2022-11-10T03:40:31;8.10;99.90
10868;DHT22;62667;48.698;8.762;2022-11-10T03:42:57;8.00;99.90
10868;DHT22;62667;48.698;8.762;2022-11-10T03:45:24;7.90;99.90
10868;DHT22;62667;48.698;8.762;2022-11-10T03:47:51;7.90;99.90
10868;DHT22;62667;48.698;8.762;2022-11-10T03:50:20;7.90;99.90
10868;DHT22;62667;48.698;8.762;2022-11-10T03:52:46;7.80;99.90
10868;DHT22;62667;48.698;8.762;2022-11-10T03:55:15;7.70;99.90
10868;DHT22;62667;48.698;8.762;2022-11-10T03:57:43;7.60;99.90
10868;DHT22;62667;48.698;8.762;2022-11-10T04:00:11;7.60;99.90
10868;DHT22;62667;48.698;8.762;2022-11-10T04:02:38;7.50;99.90
10868;DHT22;62667;48.698;8.762;2022-11-10T04:05:07;7.60;99.90
10868;DHT22;62667;48.698;8.762;2022-11-10T04:07:56;7.60;99.90
10868;DHT22;62667;48.698;8.762;2022-11-10T04:10:41;7.60;99.90
10868;DHT22;62667;48.698;8.762;2022-11-10T04:13:08;7.60;99.90
10868;DHT22;62667;48.698;8.762;2022-11-10T04:15:55;7.70;99.90
10868;DHT22;62667;48.698;8.762;2022-11-10T04:18:21;7.60;99.90
10868;DHT22;62667;48.698;8.762;2022-11-10T04:20:53;7.60;99.90
10868;DHT22;62667;48.698;8.762;2022-11-10T04:23:23;7.50;99.90
10868;DHT22;62667;48.698;8.762;2022-11-10T04:25:58;7.40;99.90
10868;DHT22;62667;48.698;8.762;2022-11-10T04:28:45;7.40;99.90
10868;DHT22;62667;48.698;8.762;2022-11-10T04:31:13;7.40;99.90
10868;DHT22;62667;48.698;8.762;2022-11-10T04:33:41;7.40;99.90
10868;DHT22;62667;48.698;8.762;2022-11-10T04:36:11;7.40;99.90
10868;DHT22;62667;48.698;8.762;2022-11-10T04:38:38;7.50;99.90
10868;DHT22;62667;48.698;8.762;2022-11-10T04:41:07;7.50;99.90
10868;DHT22;62667;48.698;8.762;2022-11-10T04:43:34;7.60;99.90
10868;DHT22;62667;48.698;8.762;2022-11-10T04:46:02;7.50;99.90
10868;DHT22;62667;48.698;8.762;2022-11-10T04:48:32;7.50;99.90
10868;DHT22;62667;48.698;8.762;2022-11-10T04:51:04;7.60;99.90
10868;DHT22;62667;48.698;8.762;2022-11-10T04:53:32;7.50;99.90
10868;DHT22;62667;48.698;8.762;2022-11-10T04:55:58;7.50;99.90
10868;DHT22;62667;48.698;8.762;2022-11-10T04:58:25;7.50;99.90
10868;DHT22;62667;48.698;8.762;2022-11-10T05:00:54;7.60;99.90
10868;DHT22;62667;48.698;8.762;2022-11-10T05:03:20;7.60;99.90
10868;DHT22;62667;48.698;8.762;2022-11-10T05:05:47;7.60;99.90
10868;DHT22;62667;48.698;8.762;2022-11-10T05:08:16;7.60;99.90
10868;DHT22;62667;48.698;8.762;2022-11-10T05:10:43;7.60;99.90
10868;DHT22;62667;48.698;8.762;2022-11-10T05:13:12;7.60;99.90
10868;DHT22;62667;48.698;8.762;2022-11-10T05:15:38;7.60;99.90
10868;DHT22;62667;48.698;8.762;2022-11-10T05:18:07;7.50;99.90
10868;DHT22;62667;48.698;8.762;2022-11-10T05:20:33;7.30;99.90
10868;DHT22;62667;48.698;8.762;2022-11-10T05:23:00;7.20;99.90
10868;DHT22;62667;48.698;8.762;2022-11-10T05:28:15;7.10;99.90
10868;DHT22;62667;48.698;8.762;2022-11-10T05:30:41;7.10;99.90
10868;DHT22;62667;48.698;8.762;2022-11-10T05:33:11;7.10;99.90
10868;DHT22;62667;48.698;8.762;2022-11-10T05:35:40;7.10;99.90
10868;DHT22;62667;48.698;8.762;2022-11-10T05:38:06;7.10;99.90
10868;DHT22;62667;48.698;8.762;2022-11-10T05:40:33;7.20;99.90
10868;DHT22;62667;48.698;8.762;2022-11-10T05:43:01;7.10;99.90
10868;DHT22;62667;48.698;8.762;2022-11-10T05:45:28;7.30;99.90
10868;DHT22;62667;48.698;8.762;2022-11-10T05:47:55;7.30;99.90
10868;DHT22;62667;48.698;8.762;2022-11-10T05:50:22;7.20;99.90
10868;DHT22;62667;48.698;8.762;2022-11-10T05:52:51;7.20;99.90
10868;DHT22;62667;48.698;8.762;2022-11-10T05:55:21;7.30;99.90
10868;DHT22;62667;48.698;8.762;2022-11-10T05:57:51;7.30;99.90
10868;DHT22;62667;48.698;8.762;2022-11-10T06:00:21;7.30;99.90
10868;DHT22;62667;48.698;8.762;2022-11-10T06:02:58;7.30;99.90
10868;DHT22;62667;48.698;8.762;2022-11-10T06:05:27;7.30;99.90
10868;DHT22;62667;48.698;8.762;2022-11-10T06:07:57;7.30;99.90
10868;DHT22;62667;48.698;8.762;2022-11-10T06:10:26;7.30;99.90
10868;DHT22;62667;48.698;8.762;2022-11-10T06:12:53;7.20;99.90
10868;DHT22;62667;48.698;8.762;2022-11-10T06:15:21;7.30;99.90
10868;DHT22;62667;48.698;8.762;2022-11-10T06:17:48;7.20;99.90
10868;DHT22;62667;48.698;8.762;2022-11-10T06:20:15;7.10;99.90
10868;DHT22;62667;48.698;8.762;2022-11-10T06:22:56;7.00;99.90
10868;DHT22;62667;48.698;8.762;2022-11-10T06:25:24;7.00;99.90
10868;DHT22;62667;48.698;8.762;2022-11-10T06:27:51;7.00;99.90
10868;DHT22;62667;48.698;8.762;2022-11-10T06:32:46;7.10;99.90
10868;DHT22;62667;48.698;8.762;2022-11-10T06:35:12;7.00;99.90
10868;DHT22;62667;48.698;8.762;2022-11-10T06:37:39;7.00;99.90
10868;DHT22;62667;48.698;8.762;2022-11-10T06:40:06;7.00;99.90
10868;DHT22;62667;48.698;8.762;2022-11-10T06:42:34;6.80;99.90
10868;DHT22;62667;48.698;8.762;2022-11-10T06:45:01;6.90;99.90
10868;DHT22;62667;48.698;8.762;2022-11-10T06:47:29;6.90;99.90
10868;DHT22;62667;48.698;8.762;2022-11-10T06:49:56;7.00;99.90
10868;DHT22;62667;48.698;8.762;2022-11-10T06:52:22;6.90;99.90
10868;DHT22;62667;48.698;8.762;2022-11-10T06:54:49;6.80;99.90
10868;DHT22;62667;48.698;8.762;2022-11-10T06:59:42;6.80;99.90
10868;DHT22;62667;48.698;8.762;2022-11-10T07:02:12;6.90;99.90
10868;DHT22;62667;48.698;8.762;2022-11-10T07:04:42;6.90;99.90
10868;DHT22;62667;48.698;8.762;2022-11-10T07:07:09;6.90;99.90
10868;DHT22;62667;48.698;8.762;2022-11-10T07:09:36;6.90;99.90
10868;DHT22;62667;48.698;8.762;2022-11-10T07:12:04;6.90;99.90
10868;DHT22;62667;48.698;8.762;2022-11-10T07:14:30;6.90;99.90
10868;DHT22;62667;48.698;8.762;2022-11-10T07:16:59;6.80;99.90
10868;DHT22;62667;48.698;8.762;2022-11-10T07:19:26;6.80;99.90
10868;DHT22;62667;48.698;8.762;2022-11-10T07:21:52;6.90;99.90
10868;DHT22;62667;48.698;8.762;2022-11-10T07:24:19;6.90;99.90
10868;DHT22;62667;48.698;8.762;2022-11-10T07:26:46;7.00;99.90
10868;DHT22;62667;48.698;8.762;2022-11-10T07:29:14;7.00;99.90
10868;DHT22;62667;48.698;8.762;2022-11-10T07:31:43;7.10;99.90
10868;DHT22;62667;48.698;8.762;2022-11-10T07:34:11;7.00;99.90
10868;DHT22;62667;48.698;8.762;2022-11-10T07:36:37;7.00;99.90
10868;DHT22;62667;48.698;8.762;2022-11-10T07:39:04;7.10;99.90
10868;DHT22;62667;48.698;8.762;2022-11-10T07:41:32;7.10;99.90
10868;DHT22;62667;48.698;8.762;2022-11-10T07:43:59;7.10;99.90
10868;DHT22;62667;48.698;8.762;2022-11-10T07:46:28;7.10;99.90
10868;DHT22;62667;48.698;8.762;2022-11-10T07:48:54;7.10;99.90
10868;DHT22;62667;48.698;8.762;2022-11-10T07:51:21;7.20;99.70
10868;DHT22;62667;48.698;8.762;2022-11-10T07:53:47;7.10;99.90
10868;DHT22;62667;48.698;8.762;2022-11-10T07:56:16;7.20;99.90
10868;DHT22;62667;48.698;8.762;2022-11-10T07:58:43;7.30;99.90
10868;DHT22;62667;48.698;8.762;2022-11-10T08:01:09;7.40;99.90
10868;DHT22;62667;48.698;8.762;2022-11-10T08:03:36;7.50;99.90
10868;DHT22;62667;48.698;8.762;2022-11-10T08:06:02;7.70;99.90
10868;DHT22;62667;48.698;8.762;2022-11-10T08:08:29;7.90;99.90
10868;DHT22;62667;48.698;8.762;2022-11-10T08:10:56;8.00;99.70
10868;DHT22;62667;48.698;8.762;2022-11-10T08:13:23;8.00;98.40
10868;DHT22;62667;48.698;8.762;2022-11-10T08:15:50;8.00;96.30
10868;DHT22;62667;48.698;8.762;2022-11-10T08:18:19;8.00;98.40
10868;DHT22;62667;48.698;8.762;2022-11-10T08:20:47;8.10;97.60
10868;DHT22;62667;48.698;8.762;2022-11-10T08:23:14;8.10;97.60
10868;DHT22;62667;48.698;8.762;2022-11-10T08:25:41;8.10;97.20
10868;DHT22;62667;48.698;8.762;2022-11-10T08:28:08;8.20;97.70
10868;DHT22;62667;48.698;8.762;2022-11-10T08:30:38;8.30;97.70
10868;DHT22;62667;48.698;8.762;2022-11-10T08:33:10;8.40;97.20
10868;DHT22;62667;48.698;8.762;2022-11-10T08:35:41;8.40;97.40
10868;DHT22;62667;48.698;8.762;2022-11-10T08:38:09;8.30;97.40
10868;DHT22;62667;48.698;8.762;2022-11-10T08:40:37;8.50;97.80
10868;DHT22;62667;48.698;8.762;2022-11-10T08:43:05;8.50;96.70
10868;DHT22;62667;48.698;8.762;2022-11-10T08:45:32;8.40;97.20
10868;DHT22;62667;48.698;8.762;2022-11-10T08:48:01;8.50;97.40
10868;DHT22;62667;48.698;8.762;2022-11-10T08:53:00;8.80;96.70
10868;DHT22;62667;48.698;8.762;2022-11-10T08:55:27;8.90;97.70
10868;DHT22;62667;48.698;8.762;2022-11-10T08:57:57;9.10;97.40
10868;DHT22;62667;48.698;8.762;2022-11-10T09:02:55;9.60;95.80
10868;DHT22;62667;48.698;8.762;2022-11-10T09:05:22;9.80;94.70
10868;DHT22;62667;48.698;8.762;2022-11-10T09:07:52;9.90;95.10
10868;DHT22;62667;48.698;8.762;2022-11-10T09:10:18;10.00;95.50
10868;DHT22;62667;48.698;8.762;2022-11-10T09:15:12;10.30;94.10
10868;DHT22;62667;48.698;8.762;2022-11-10T09:17:41;10.50;94.40
10868;DHT22;62667;48.698;8.762;2022-11-10T09:20:08;10.50;93.50
10868;DHT22;62667;48.698;8.762;2022-11-10T09:22:37;10.60;94.00
10868;DHT22;62667;48.698;8.762;2022-11-10T10:52:01;13.30;85.50
10868;DHT22;62667;48.698;8.762;2022-11-10T10:54:30;13.30;85.60
10868;DHT22;62667;48.698;8.762;2022-11-10T10:57:02;13.60;83.90
10868;DHT22;62667;48.698;8.762;2022-11-10T10:59:31;13.60;81.50
10868;DHT22;62667;48.698;8.762;2022-11-10T11:01:59;13.80;81.50
10868;DHT22;62667;48.698;8.762;2022-11-10T11:07:00;14.30;78.00
10868;DHT22;62667;48.698;8.762;2022-11-10T11:09:38;14.40;77.60
10868;DHT22;62667;48.698;8.762;2022-11-10T11:12:09;14.40;76.10
10868;DHT22;62667;48.698;8.762;2022-11-10T11:14:37;14.60;76.40
10868;DHT22;62667;48.698;8.762;2022-11-10T11:17:13;14.90;75.00
10868;DHT22;62667;48.698;8.762;2022-11-10T11:19:44;15.10;73.70
10868;DHT22;62667;48.698;8.762;2022-11-10T11:22:26;15.50;71.70
10868;DHT22;62667;48.698;8.762;2022-11-10T11:25:10;15.80;69.60
10868;DHT22;62667;48.698;8.762;2022-11-10T11:27:49;16.10;63.40
10868;DHT22;62667;48.698;8.762;2022-11-10T11:30:22;16.00;60.10
10868;DHT22;62667;48.698;8.762;2022-11-10T11:33:04;16.30;56.40
10868;DHT22;62667;48.698;8.762;2022-11-10T11:35:45;16.60;54.80
10868;DHT22;62667;48.698;8.762;2022-11-10T11:38:21;17.00;52.10
10868;DHT22;62667;48.698;8.762;2022-11-10T11:40:58;17.30;51.70
10868;DHT22;62667;48.698;8.762;2022-11-10T11:44:09;17.30;49.30
10868;DHT22;62667;48.698;8.762;2022-11-10T11:46:58;17.00;48.40
10868;DHT22;62667;48.698;8.762;2022-11-10T11:49:44;17.70;49.80
10868;DHT22;62667;48.698;8.762;2022-11-10T11:52:36;18.20;48.00
10868;DHT22;62667;48.698;8.762;2022-11-10T11:55:17;18.40;46.60
10868;DHT22;62667;48.698;8.762;2022-11-10T11:58:10;18.80;43.90
10868;DHT22;62667;48.698;8.762;2022-11-10T12:00:55;19.00;43.00
10868;DHT22;62667;48.698;8.762;2022-11-10T12:04:13;19.40;41.60
10868;DHT22;62667;48.698;8.762;2022-11-10T12:07:02;19.70;40.20
10868;DHT22;62667;48.698;8.762;2022-11-10T12:09:42;20.00;39.90
10868;DHT22;62667;48.698;8.762;2022-11-10T12:12:50;20.70;39.50
10868;DHT22;62667;48.698;8.762;2022-11-10T12:15:34;21.00;36.60
10868;DHT22;62667;48.698;8.762;2022-11-10T12:18:23;22.70;34.20
10868;DHT22;62667;48.698;8.762;2022-11-10T12:26:52;24.40;28.10
10868;DHT22;62667;48.698;8.762;2022-11-10T12:32:02;25.00;27.00
10868;DHT22;62667;48.698;8.762;2022-11-10T12:34:38;27.30;23.50
10868;DHT22;62667;48.698;8.762;2022-11-10T12:45:13;27.90;19.30
10868;DHT22;62667;48.698;8.762;2022-11-10T12:50:35;29.20;17.10
10868;DHT22;62667;48.698;8.762;2022-11-10T12:55:47;32.10;15.00
10868;DHT22;62667;48.698;8.762;2022-11-10T12:58:19;31.00;15.10
10868;DHT22;62667;48.698;8.762;2022-11-10T13:03:28;28.80;16.20
10868;DHT22;62667;48.698;8.762;2022-11-10T13:05:58;28.50;17.50
10868;DHT22;62667;48.698;8.762;2022-11-10T13:13:45;30.90;14.80
10868;DHT22;62667;48.698;8.762;2022-11-10T13:28:57;32.60;13.30
10868;DHT22;62667;48.698;8.762;2022-11-10T13:31:52;32.10;13.10
10868;DHT22;62667;48.698;8.762;2022-11-10T13:34:27;30.40;14.10
10868;DHT22;62667;48.698;8.762;2022-11-10T13:36:55;29.10;16.70
10868;DHT22;62667;48.698;8.762;2022-11-10T13:44:27;30.40;16.50
10868;DHT22;62667;48.698;8.762;2022-11-10T13:47:22;30.30;15.20
10868;DHT22;62667;48.698;8.762;2022-11-10T13:53:10;27.50;16.80
10868;DHT22;62667;48.698;8.762;2022-11-10T13:55:51;28.10;17.70
10868;DHT22;62667;48.698;8.762;2022-11-10T13:58:32;28.50;16.20
10868;DHT22;62667;48.698;8.762;2022-11-10T14:01:20;31.20;14.80
10868;DHT22;62667;48.698;8.762;2022-11-10T14:06:23;31.10;13.70
10868;DHT22;62667;48.698;8.762;2022-11-10T14:08:55;33.00;12.40
10868;DHT22;62667;48.698;8.762;2022-11-10T14:11:33;33.50;11.50
10868;DHT22;62667;48.698;8.762;2022-11-10T14:14:09;34.60;10.50
10868;DHT22;62667;48.698;8.762;2022-11-10T14:16:41;34.90;10.20
10868;DHT22;62667;48.698;8.762;2022-11-10T14:19:30;33.10;10.70
10868;DHT22;62667;48.698;8.762;2022-11-10T14:22:09;32.10;12.80
10868;DHT22;62667;48.698;8.762;2022-11-10T14:27:23;28.10;15.70
10868;DHT22;62667;48.698;8.762;2022-11-10T14:30:03;27.10;18.60
10868;DHT22;62667;48.698;8.762;2022-11-10T14:32:32;28.10;18.10
10868;DHT22;62667;48.698;8.762;2022-11-10T14:34:59;27.50;17.50
10868;DHT22;62667;48.698;8.762;2022-11-10T14:37:28;28.00;18.30
10868;DHT22;62667;48.698;8.762;2022-11-10T14:39:56;28.30;17.50
10868;DHT22;62667;48.698;8.762;2022-11-10T14:42:27;29.70;16.60
10868;DHT22;62667;48.698;8.762;2022-11-10T14:45:07;29.70;16.10
10868;DHT22;62667;48.698;8.762;2022-11-10T14:47:41;30.20;15.30
10868;DHT22;62667;48.698;8.762;2022-11-10T14:50:19;29.60;15.00
10868;DHT22;62667;48.698;8.762;2022-11-10T14:52:50;30.40;15.20
10868;DHT22;62667;48.698;8.762;2022-11-10T14:55:22;30.70;14.70
10868;DHT22;62667;48.698;8.762;2022-11-10T14:57:53;31.00;14.50
10868;DHT22;62667;48.698;8.762;2022-11-10T15:00:26;30.30;14.40
10868;DHT22;62667;48.698;8.762;2022-11-10T15:02:56;29.40;15.60
10868;DHT22;62667;48.698;8.762;2022-11-10T15:05:23;29.30;16.20
10868;DHT22;62667;48.698;8.762;2022-11-10T15:07:52;29.80;15.70
10868;DHT22;62667;48.698;8.762;2022-11-10T15:10:23;30.10;15.50
10868;DHT22;62667;48.698;8.762;2022-11-10T15:12:59;30.60;15.00
10868;DHT22;62667;48.698;8.762;2022-11-10T15:15:27;30.50;15.10
10868;DHT22;62667;48.698;8.762;2022-11-10T15:17:54;30.70;14.60
10868;DHT22;62667;48.698;8.762;2022-11-10T15:20:28;30.90;14.80
10868;DHT22;62667;48.698;8.762;2022-11-10T15:22:57;30.60;15.30
10868;DHT22;62667;48.698;8.762;2022-11-10T15:25:32;30.20;15.60
10868;DHT22;62667;48.698;8.762;2022-11-10T15:30:50;29.40;16.10
10868;DHT22;62667;48.698;8.762;2022-11-10T15:33:24;27.70;17.50
10868;DHT22;62667;48.698;8.762;2022-11-10T15:41:12;22.00;28.20
10868;DHT22;62667;48.698;8.762;2022-11-10T15:46:12;18.30;37.50
10868;DHT22;62667;48.698;8.762;2022-11-10T15:48:43;17.60;39.30
10868;DHT22;62667;48.698;8.762;2022-11-10T15:51:13;16.70;42.80
10868;DHT22;62667;48.698;8.762;2022-11-10T15:56:12;15.60;48.80
10868;DHT22;62667;48.698;8.762;2022-11-10T16:03:43;14.90;53.10
10868;DHT22;62667;48.698;8.762;2022-11-10T16:06:12;14.60;54.80
10868;DHT22;62667;48.698;8.762;2022-11-10T16:08:40;14.40;56.60
10868;DHT22;62667;48.698;8.762;2022-11-10T16:11:12;14.10;57.20
10868;DHT22;62667;48.698;8.762;2022-11-10T16:13:42;14.00;57.30
10868;DHT22;62667;48.698;8.762;2022-11-10T16:16:10;13.70;58.00
10868;DHT22;62667;48.698;8.762;2022-11-10T16:18:38;13.60;58.50
10868;DHT22;62667;48.698;8.762;2022-11-10T16:21:08;13.30;59.40
10868;DHT22;62667;48.698;8.762;2022-11-10T16:23:39;13.30;59.70
10868;DHT22;62667;48.698;8.762;2022-11-10T16:26:10;13.20;60.40
10868;DHT22;62667;48.698;8.762;2022-11-10T16:28:38;13.10;61.00
10868;DHT22;62667;48.698;8.762;2022-11-10T16:31:09;12.80;62.30
10868;DHT22;62667;48.698;8.762;2022-11-10T16:33:36;12.70;63.40
10868;DHT22;62667;48.698;8.762;2022-11-10T16:36:03;12.60;64.20
10868;DHT22;62667;48.698;8.762;2022-11-10T16:38:31;12.50;65.10
10868;DHT22;62667;48.698;8.762;2022-11-10T16:40:59;12.40;65.70
10868;DHT22;62667;48.698;8.762;2022-11-10T16:43:27;12.30;66.40
10868;DHT22;62667;48.698;8.762;2022-11-10T16:45:57;12.30;67.00
10868;DHT22;62667;48.698;8.762;2022-11-10T16:48:29;12.30;67.20
10868;DHT22;62667;48.698;8.762;2022-11-10T16:50:58;12.20;67.40
10868;DHT22;62667;48.698;8.762;2022-11-10T16:53:30;12.20;67.30
10868;DHT22;62667;48.698;8.762;2022-11-10T16:55:58;12.10;67.30
10868;DHT22;62667;48.698;8.762;2022-11-10T16:58:25;12.00;67.30
10868;DHT22;62667;48.698;8.762;2022-11-10T17:00:53;11.80;67.50
10868;DHT22;62667;48.698;8.762;2022-11-10T17:03:28;11.60;68.40
10868;DHT22;62667;48.698;8.762;2022-11-10T17:05:57;11.60;68.80
10868;DHT22;62667;48.698;8.762;2022-11-10T17:08:27;11.50;69.80
10868;DHT22;62667;48.698;8.762;2022-11-10T17:10:56;11.60;70.20
10868;DHT22;62667;48.698;8.762;2022-11-10T17:13:24;11.50;70.90
10868;DHT22;62667;48.698;8.762;2022-11-10T17:15:52;11.50;70.80
10868;DHT22;62667;48.698;8.762;2022-11-10T17:18:21;11.40;71.80
10868;DHT22;62667;48.698;8.762;2022-11-10T17:20:50;11.30;71.30
10868;DHT22;62667;48.698;8.762;2022-11-10T17:23:20;11.20;71.60
10868;DHT22;62667;48.698;8.762;2022-11-10T17:25:48;11.20;72.40
10868;DHT22;62667;48.698;8.762;2022-11-10T17:28:17;11.10;72.50
10868;DHT22;62667;48.698;8.762;2022-11-10T17:30:44;11.00;72.90
10868;DHT22;62667;48.698;8.762;2022-11-10T17:33:11;10.90;72.60
10868;DHT22;62667;48.698;8.762;2022-11-10T17:35:42;10.80;72.90
10868;DHT22;62667;48.698;8.762;2022-11-10T17:38:11;10.70;73.50
10868;DHT22;62667;48.698;8.762;2022-11-10T17:40:40;10.60;74.80
10868;DHT22;62667;48.698;8.762;2022-11-10T17:43:09;10.60;75.70
10868;DHT22;62667;48.698;8.762;2022-11-10T17:45:37;10.60;76.00
10868;DHT22;62667;48.698;8.762;2022-11-10T17:48:05;10.50;76.00
10868;DHT22;62667;48.698;8.762;2022-11-10T17:50:33;10.50;74.90
10868;DHT22;62667;48.698;8.762;2022-11-10T17:53:01;10.40;75.80
10868;DHT22;62667;48.698;8.762;2022-11-10T17:55:29;10.30;75.50
10868;DHT22;62667;48.698;8.762;2022-11-10T17:57:55;10.30;74.90
10868;DHT22;62667;48.698;8.762;2022-11-10T18:00:22;10.20;75.80
10868;DHT22;62667;48.698;8.762;2022-11-10T18:02:52;10.10;75.90
10868;DHT22;62667;48.698;8.762;2022-11-10T18:05:19;10.10;76.80
10868;DHT22;62667;48.698;8.762;2022-11-10T18:07:48;10.00;77.60
10868;DHT22;62667;48.698;8.762;2022-11-10T18:10:15;10.00;77.80
10868;DHT22;62667;48.698;8.762;2022-11-10T18:12:42;10.00;78.90
10868;DHT22;62667;48.698;8.762;2022-11-10T18:15:11;10.00;79.30
10868;DHT22;62667;48.698;8.762;2022-11-10T18:17:39;9.90;79.90
10868;DHT22;62667;48.698;8.762;2022-11-10T18:20:08;9.80;80.70
10868;DHT22;62667;48.698;8.762;2022-11-10T18:22:36;9.70;81.80
10868;DHT22;62667;48.698;8.762;2022-11-10T18:25:04;9.70;81.90
10868;DHT22;62667;48.698;8.762;2022-11-10T18:27:32;9.60;82.30
10868;DHT22;62667;48.698;8.762;2022-11-10T18:29:59;9.60;81.60
10868;DHT22;62667;48.698;8.762;2022-11-10T18:32:25;9.50;81.30
10868;DHT22;62667;48.698;8.762;2022-11-10T18:34:52;9.40;81.00
10868;DHT22;62667;48.698;8.762;2022-11-10T18:37:19;9.40;81.10
10868;DHT22;62667;48.698;8.762;2022-11-10T18:39:46;9.40;81.70
10868;DHT22;62667;48.698;8.762;2022-11-10T18:42:13;9.30;81.20
10868;DHT22;62667;48.698;8.762;2022-11-10T18:44:39;9.20;82.10
10868;DHT22;62667;48.698;8.762;2022-11-10T18:47:06;9.30;81.80
10868;DHT22;62667;48.698;8.762;2022-11-10T18:49:38;9.20;81.70
10868;DHT22;62667;48.698;8.762;2022-11-10T18:52:07;9.10;81.50
10868;DHT22;62667;48.698;8.762;2022-11-10T18:54:35;9.00;82.00
10868;DHT22;62667;48.698;8.762;2022-11-10T18:57:01;9.00;84.80
10868;DHT22;62667;48.698;8.762;2022-11-10T18:59:28;9.20;92.30